sensor_id;sensor_type;location;lat;lon;timestamp;pressure;altitude;pressure_sealevel;temperature
48854;BMP280;34673;52.808;17.856;2022-09-21T00:01:18;100873.91;;;11.02
48854;BMP280;34673;52.808;17.856;2022-09-21T00:03:46;100854.91;;;10.88
48854;BMP280;34673;52.808;17.856;2022-09-21T00:06:16;100868.72;;;11.01
48854;BMP280;34673;52.808;17.856;2022-09-21T00:08:45;100851.47;;;10.89
48854;BMP280;34673;52.808;17.856;2022-09-21T00:11:20;100882.53;;;11.07
48854;BMP280;34673;52.808;17.856;2022-09-21T00:13:52;100880.78;;;11.06
48854;BMP280;34673;52.808;17.856;2022-09-21T00:16:21;100884.22;;;11.08
48854;BMP280;34673;52.808;17.856;2022-09-21T00:18:48;100877.31;;;11.04
48854;BMP280;34673;52.808;17.856;2022-09-21T00:21:16;100860.13;;;10.91
48854;BMP280;34673;52.808;17.856;2022-09-21T00:23:44;100858.38;;;10.90
48854;BMP280;34673;52.808;17.856;2022-09-21T00:26:14;100891.13;;;11.09
48854;BMP280;34673;52.808;17.856;2022-09-21T00:28:42;100855.78;;;10.95
48854;BMP280;34673;52.808;17.856;2022-09-21T00:31:13;100892.84;;;11.14
48854;BMP280;34673;52.808;17.856;2022-09-21T00:33:41;100867.84;;;10.97
48854;BMP280;34673;52.808;17.856;2022-09-21T00:36:12;100889.41;;;11.15
48854;BMP280;34673;52.808;17.856;2022-09-21T00:38:40;100876.44;;;11.07
48854;BMP280;34673;52.808;17.856;2022-09-21T00:41:08;100885.94;;;11.09
48854;BMP280;34673;52.808;17.856;2022-09-21T00:43:39;100891.97;;;11.15
48854;BMP280;34673;52.808;17.856;2022-09-21T00:46:25;100885.94;;;11.13
48854;BMP280;34673;52.808;17.856;2022-09-21T00:48:53;100888.53;;;11.13
48854;BMP280;34673;52.808;17.856;2022-09-21T00:51:20;100841.16;;;10.83
48854;BMP280;34673;52.808;17.856;2022-09-21T00:53:52;100880.78;;;11.06
48854;BMP280;34673;52.808;17.856;2022-09-21T00:56:21;100842.00;;;10.86
48854;BMP280;34673;52.808;17.856;2022-09-21T00:58:51;100889.41;;;11.12
48854;BMP280;34673;52.808;17.856;2022-09-21T01:01:20;100886.81;;;11.12
48854;BMP280;34673;52.808;17.856;2022-09-21T01:03:49;100889.41;;;11.12
48854;BMP280;34673;52.808;17.856;2022-09-21T01:06:19;100892.84;;;11.14
48854;BMP280;34673;52.808;17.856;2022-09-21T01:08:49;100898.03;;;11.14
48854;BMP280;34673;52.808;17.856;2022-09-21T01:17:14;100898.03;;;11.14
48854;BMP280;34673;52.808;17.856;2022-09-21T01:22:56;100896.31;;;11.16
48854;BMP280;34673;52.808;17.856;2022-09-21T01:25:49;100892.88;;;11.11
48854;BMP280;34673;52.808;17.856;2022-09-21T01:31:13;100889.41;;;11.08
48854;BMP280;34673;52.808;17.856;2022-09-21T01:33:48;100912.69;;;11.18
48854;BMP280;34673;52.808;17.856;2022-09-21T01:36:21;100908.38;;;11.20
48854;BMP280;34673;52.808;17.856;2022-09-21T01:38:54;100910.09;;;11.15
48854;BMP280;34673;52.808;17.856;2022-09-21T01:41:23;100910.97;;;11.14
48854;BMP280;34673;52.808;17.856;2022-09-21T01:43:54;100898.03;;;11.04
48854;BMP280;34673;52.808;17.856;2022-09-21T01:46:26;100920.47;;;11.12
48854;BMP280;34673;52.808;17.856;2022-09-21T01:49:02;100921.34;;;11.11
48854;BMP280;34673;52.808;17.856;2022-09-21T01:51:32;100823.03;;;10.57
48854;BMP280;34673;52.808;17.856;2022-09-21T01:54:07;100918.75;;;11.11
48854;BMP280;34673;52.808;17.856;2022-09-21T01:56:44;100911.84;;;11.06
48854;BMP280;34673;52.808;17.856;2022-09-21T01:59:20;100917.00;;;11.09
48854;BMP280;34673;52.808;17.856;2022-09-21T02:01:55;100927.38;;;11.13
48854;BMP280;34673;52.808;17.856;2022-09-21T02:04:23;100838.53;;;10.58
48854;BMP280;34673;52.808;17.856;2022-09-21T02:06:51;100875.63;;;10.82
48854;BMP280;34673;52.808;17.856;2022-09-21T02:09:19;100915.31;;;11.02
48854;BMP280;34673;52.808;17.856;2022-09-21T02:11:46;100915.31;;;11.02
48854;BMP280;34673;52.808;17.856;2022-09-21T02:14:20;100937.72;;;11.06
48854;BMP280;34673;52.808;17.856;2022-09-21T02:19:52;100922.22;;;10.97
48854;BMP280;34673;52.808;17.856;2022-09-21T02:22:32;100937.72;;;11.13
48854;BMP280;34673;52.808;17.856;2022-09-21T02:25:09;100930.81;;;11.12
48854;BMP280;34673;52.808;17.856;2022-09-21T02:27:53;100930.81;;;11.12
48854;BMP280;34673;52.808;17.856;2022-09-21T02:30:23;100929.13;;;11.11
48854;BMP280;34673;52.808;17.856;2022-09-21T02:33:18;100930.84;;;11.08
48854;BMP280;34673;52.808;17.856;2022-09-21T02:35:54;100930.00;;;11.05
48854;BMP280;34673;52.808;17.856;2022-09-21T02:38:49;100920.50;;;11.05
48854;BMP280;34673;52.808;17.856;2022-09-21T02:41:19;100931.72;;;11.07
48854;BMP280;34673;52.808;17.856;2022-09-21T02:46:26;100939.47;;;11.07
48854;BMP280;34673;52.808;17.856;2022-09-21T02:48:59;100939.44;;;11.04
48854;BMP280;34673;52.808;17.856;2022-09-21T02:51:32;100936.03;;;10.99
48854;BMP280;34673;52.808;17.856;2022-09-21T02:54:03;100945.50;;;11.02
48854;BMP280;34673;52.808;17.856;2022-09-21T02:56:32;100934.28;;;10.95
48854;BMP280;34673;52.808;17.856;2022-09-21T02:59:02;100860.97;;;10.49
48854;BMP280;34673;52.808;17.856;2022-09-21T03:01:31;100956.72;;;10.95
48854;BMP280;34673;52.808;17.856;2022-09-21T03:03:59;100926.53;;;10.80
48854;BMP280;34673;52.808;17.856;2022-09-21T03:06:26;100867.03;;;10.37
48854;BMP280;34673;52.808;17.856;2022-09-21T03:08:53;100862.66;;;10.31
48854;BMP280;34673;52.808;17.856;2022-09-21T03:11:21;100960.19;;;10.89
48854;BMP280;34673;52.808;17.856;2022-09-21T03:13:48;100959.31;;;10.84
48854;BMP280;34673;52.808;17.856;2022-09-21T03:16:15;100962.78;;;10.83
48854;BMP280;34673;52.808;17.856;2022-09-21T03:18:42;100948.09;;;10.73
48854;BMP280;34673;52.808;17.856;2022-09-21T03:21:10;100967.09;;;10.81
48854;BMP280;34673;52.808;17.856;2022-09-21T03:23:39;100967.94;;;10.77
48854;BMP280;34673;52.808;17.856;2022-09-21T03:26:07;100970.53;;;10.81
48854;BMP280;34673;52.808;17.856;2022-09-21T03:28:34;100972.25;;;10.81
48854;BMP280;34673;52.808;17.856;2022-09-21T03:31:02;100934.28;;;10.61
48854;BMP280;34673;52.808;17.856;2022-09-21T03:33:29;100917.03;;;10.54
48854;BMP280;34673;52.808;17.856;2022-09-21T03:35:56;100972.25;;;10.84
48854;BMP280;34673;52.808;17.856;2022-09-21T03:38:23;100970.53;;;10.83
48854;BMP280;34673;52.808;17.856;2022-09-21T03:40:52;100967.09;;;10.78
48854;BMP280;34673;52.808;17.856;2022-09-21T03:43:24;100975.69;;;10.77
48854;BMP280;34673;52.808;17.856;2022-09-21T03:45:52;100983.47;;;10.78
48854;BMP280;34673;52.808;17.856;2022-09-21T03:48:19;100968.78;;;10.63
48854;BMP280;34673;52.808;17.856;2022-09-21T03:50:48;100980.88;;;10.75
48854;BMP280;34673;52.808;17.856;2022-09-21T03:53:15;100975.69;;;10.74
48854;BMP280;34673;52.808;17.856;2022-09-21T03:55:42;100970.50;;;10.71
48854;BMP280;34673;52.808;17.856;2022-09-21T03:58:10;100965.34;;;10.68
48854;BMP280;34673;52.808;17.856;2022-09-21T04:00:37;100972.22;;;10.65
48854;BMP280;34673;52.808;17.856;2022-09-21T04:03:05;100965.34;;;10.61
48854;BMP280;34673;52.808;17.856;2022-09-21T04:05:32;100950.66;;;10.51
48854;BMP280;34673;52.808;17.856;2022-09-21T04:08:00;100981.72;;;10.71
48854;BMP280;34673;52.808;17.856;2022-09-21T04:10:28;100987.75;;;10.75
48854;BMP280;34673;52.808;17.856;2022-09-21T04:13:02;100989.50;;;10.73
48854;BMP280;34673;52.808;17.856;2022-09-21T04:15:30;100986.91;;;10.73
48854;BMP280;34673;52.808;17.856;2022-09-21T04:17:57;100988.66;;;10.72
48854;BMP280;34673;52.808;17.856;2022-09-21T04:20:25;100984.31;;;10.73
48854;BMP280;34673;52.808;17.856;2022-09-21T04:22:53;100969.63;;;10.59
48854;BMP280;34673;52.808;17.856;2022-09-21T04:25:20;100944.59;;;10.45
48854;BMP280;34673;52.808;17.856;2022-09-21T04:27:47;100965.31;;;10.55
48854;BMP280;34673;52.808;17.856;2022-09-21T04:30:15;100984.28;;;10.67
48854;BMP280;34673;52.808;17.856;2022-09-21T04:32:43;101002.44;;;10.74
48854;BMP280;34673;52.808;17.856;2022-09-21T04:35:10;100998.09;;;10.75
48854;BMP280;34673;52.808;17.856;2022-09-21T04:37:37;100994.69;;;10.73
48854;BMP280;34673;52.808;17.856;2022-09-21T04:40:05;100961.88;;;10.56
48854;BMP280;34673;52.808;17.856;2022-09-21T04:42:32;100997.25;;;10.77
48854;BMP280;34673;52.808;17.856;2022-09-21T04:45:00;100991.22;;;10.77
48854;BMP280;34673;52.808;17.856;2022-09-21T04:47:29;100998.09;;;10.75
48854;BMP280;34673;52.808;17.856;2022-09-21T04:49:57;100999.00;;;10.75
48854;BMP280;34673;52.808;17.856;2022-09-21T04:52:24;101005.88;;;10.79
48854;BMP280;34673;52.808;17.856;2022-09-21T04:54:51;101004.16;;;10.80
48854;BMP280;34673;52.808;17.856;2022-09-21T04:57:19;100950.63;;;10.47
48854;BMP280;34673;52.808;17.856;2022-09-21T04:59:46;100995.53;;;10.73
48854;BMP280;34673;52.808;17.856;2022-09-21T05:02:13;101008.50;;;10.81
48854;BMP280;34673;52.808;17.856;2022-09-21T05:04:40;101007.63;;;10.79
48854;BMP280;34673;52.808;17.856;2022-09-21T05:07:11;101004.16;;;10.78
48854;BMP280;34673;52.808;17.856;2022-09-21T05:09:38;100989.50;;;10.70
48854;BMP280;34673;52.808;17.856;2022-09-21T05:12:23;101017.13;;;10.86
48854;BMP280;34673;52.808;17.856;2022-09-21T05:14:50;101027.47;;;10.86
48854;BMP280;34673;52.808;17.856;2022-09-21T05:17:18;101005.88;;;10.73
48854;BMP280;34673;52.808;17.856;2022-09-21T05:19:49;100910.91;;;10.15
48854;BMP280;34673;52.808;17.856;2022-09-21T05:22:16;101036.97;;;10.93
48854;BMP280;34673;52.808;17.856;2022-09-21T05:24:44;101030.94;;;10.97
48854;BMP280;34673;52.808;17.856;2022-09-21T05:27:11;101029.19;;;10.96
48854;BMP280;34673;52.808;17.856;2022-09-21T05:29:39;101035.25;;;11.03
48854;BMP280;34673;52.808;17.856;2022-09-21T05:32:24;101034.41;;;11.02
48854;BMP280;34673;52.808;17.856;2022-09-21T05:40:05;101037.88;;;11.07
48854;BMP280;34673;52.808;17.856;2022-09-21T05:42:33;101048.22;;;11.20
48854;BMP280;34673;52.808;17.856;2022-09-21T05:45:00;101010.22;;;11.00
48854;BMP280;34673;52.808;17.856;2022-09-21T05:47:38;101048.22;;;11.23
48854;BMP280;34673;52.808;17.856;2022-09-21T05:56:03;101045.63;;;11.27
48854;BMP280;34673;52.808;17.856;2022-09-21T06:04:14;101040.47;;;11.32
48854;BMP280;34673;52.808;17.856;2022-09-21T06:06:41;101043.03;;;11.35
48854;BMP280;34673;52.808;17.856;2022-09-21T06:09:08;101060.28;;;11.45
48854;BMP280;34673;52.808;17.856;2022-09-21T06:11:35;100999.00;;;11.06
48854;BMP280;34673;52.808;17.856;2022-09-21T06:14:03;101049.94;;;11.45
48854;BMP280;34673;52.808;17.856;2022-09-21T06:16:41;101039.56;;;11.42
48854;BMP280;34673;52.808;17.856;2022-09-21T06:19:11;101006.78;;;11.27
48854;BMP280;34673;52.808;17.856;2022-09-21T06:21:39;101062.88;;;11.61
48854;BMP280;34673;52.808;17.856;2022-09-21T06:24:06;101062.00;;;11.59
48854;BMP280;34673;52.808;17.856;2022-09-21T06:26:33;101062.00;;;11.56
48854;BMP280;34673;52.808;17.856;2022-09-21T06:29:01;101060.28;;;11.61
48854;BMP280;34673;52.808;17.856;2022-09-21T06:31:28;101060.28;;;11.64
48854;BMP280;34673;52.808;17.856;2022-09-21T06:33:56;101068.06;;;11.64
48854;BMP280;34673;52.808;17.856;2022-09-21T06:36:23;101064.59;;;11.63
48854;BMP280;34673;52.808;17.856;2022-09-21T06:38:50;101011.97;;;11.20
48854;BMP280;34673;52.808;17.856;2022-09-21T06:41:17;101069.81;;;11.62
48854;BMP280;34673;52.808;17.856;2022-09-21T06:43:47;101036.13;;;11.43
48854;BMP280;34673;52.808;17.856;2022-09-21T06:46:14;101075.81;;;11.67
48854;BMP280;34673;52.808;17.856;2022-09-21T06:48:41;101081.88;;;11.70
48854;BMP280;34673;52.808;17.856;2022-09-21T06:51:08;101075.84;;;11.70
48854;BMP280;34673;52.808;17.856;2022-09-21T06:53:36;101018.84;;;11.36
48854;BMP280;34673;52.808;17.856;2022-09-21T06:56:08;101068.94;;;11.63
48854;BMP280;34673;52.808;17.856;2022-09-21T06:58:35;101077.56;;;11.74
48854;BMP280;34673;52.808;17.856;2022-09-21T07:01:08;101084.44;;;11.75
48854;BMP280;34673;52.808;17.856;2022-09-21T07:03:36;101086.19;;;11.76
48854;BMP280;34673;52.808;17.856;2022-09-21T07:06:04;101066.31;;;11.64
48854;BMP280;34673;52.808;17.856;2022-09-21T07:08:32;101086.19;;;11.82
48854;BMP280;34673;52.808;17.856;2022-09-21T07:11:20;101093.97;;;11.84
48854;BMP280;34673;52.808;17.856;2022-09-21T07:13:49;101062.03;;;11.68
48854;BMP280;34673;52.808;17.856;2022-09-21T07:16:17;101086.16;;;11.85
48854;BMP280;34673;52.808;17.856;2022-09-21T07:18:45;101041.28;;;11.59
48854;BMP280;34673;52.808;17.856;2022-09-21T07:21:13;101056.81;;;11.74
48854;BMP280;34673;52.808;17.856;2022-09-21T07:23:40;101100.03;;;12.03
48854;BMP280;34673;52.808;17.856;2022-09-21T07:26:13;101100.00;;;12.06
48854;BMP280;34673;52.808;17.856;2022-09-21T07:28:41;101049.88;;;11.85
48854;BMP280;34673;52.808;17.856;2022-09-21T07:31:13;101086.13;;;12.22
48854;BMP280;34673;52.808;17.856;2022-09-21T07:33:42;101093.91;;;12.30
48854;BMP280;34673;52.808;17.856;2022-09-21T07:36:10;101091.25;;;12.37
48854;BMP280;34673;52.808;17.856;2022-09-21T07:38:40;101091.25;;;12.44
48854;BMP280;34673;52.808;17.856;2022-09-21T07:41:12;101094.69;;;12.49
48854;BMP280;34673;52.808;17.856;2022-09-21T07:43:40;101092.91;;;12.54
48854;BMP280;34673;52.808;17.856;2022-09-21T07:46:10;101098.09;;;12.60
48854;BMP280;34673;52.808;17.856;2022-09-21T07:48:38;101090.28;;;12.64
48854;BMP280;34673;52.808;17.856;2022-09-21T07:51:07;101080.75;;;12.71
48854;BMP280;34673;52.808;17.856;2022-09-21T07:53:36;101097.97;;;12.84
48854;BMP280;34673;52.808;17.856;2022-09-21T07:56:06;101102.22;;;12.96
48854;BMP280;34673;52.808;17.856;2022-09-21T07:58:34;101098.69;;;13.08
48854;BMP280;34673;52.808;17.856;2022-09-21T08:01:20;101054.56;;;13.02
48854;BMP280;34673;52.808;17.856;2022-09-21T08:03:52;101095.88;;;13.45
48854;BMP280;34673;52.808;17.856;2022-09-21T08:06:20;101093.94;;;13.67
48854;BMP280;34673;52.808;17.856;2022-09-21T08:08:49;101098.94;;;13.90
48854;BMP280;34673;52.808;17.856;2022-09-21T08:11:23;101091.69;;;14.19
48854;BMP280;34673;52.808;17.856;2022-09-21T08:13:55;101090.53;;;14.44
48854;BMP280;34673;52.808;17.856;2022-09-21T08:16:22;101099.06;;;14.56
48854;BMP280;34673;52.808;17.856;2022-09-21T08:18:51;101053.25;;;14.40
48854;BMP280;34673;52.808;17.856;2022-09-21T08:21:18;101097.91;;;14.82
48854;BMP280;34673;52.808;17.856;2022-09-21T08:23:47;101097.00;;;14.83
48854;BMP280;34673;52.808;17.856;2022-09-21T08:26:17;101093.66;;;14.73
48854;BMP280;34673;52.808;17.856;2022-09-21T08:28:46;101091.94;;;14.71
48854;BMP280;34673;52.808;17.856;2022-09-21T08:31:18;101091.06;;;14.72
48854;BMP280;34673;52.808;17.856;2022-09-21T08:33:47;101084.03;;;14.80
48854;BMP280;34673;52.808;17.856;2022-09-21T08:36:16;101049.31;;;14.76
48854;BMP280;34673;52.808;17.856;2022-09-21T08:38:44;101090.63;;;15.02
48854;BMP280;34673;52.808;17.856;2022-09-21T08:41:22;101087.28;;;14.94
48854;BMP280;34673;52.808;17.856;2022-09-21T08:43:54;101087.38;;;14.88
48854;BMP280;34673;52.808;17.856;2022-09-21T08:46:27;101063.38;;;14.65
48854;BMP280;34673;52.808;17.856;2022-09-21T08:49:07;101089.28;;;14.77
48854;BMP280;34673;52.808;17.856;2022-09-21T08:51:44;101096.25;;;14.75
48854;BMP280;34673;52.808;17.856;2022-09-21T08:54:20;101089.31;;;14.74
48854;BMP280;34673;52.808;17.856;2022-09-21T08:56:51;101094.50;;;14.77
48854;BMP280;34673;52.808;17.856;2022-09-21T08:59:32;101099.75;;;14.71
48854;BMP280;34673;52.808;17.856;2022-09-21T09:02:37;101105.00;;;14.68
48854;BMP280;34673;52.808;17.856;2022-09-21T09:16:35;101092.94;;;14.63
48854;BMP280;34673;52.808;17.856;2022-09-21T09:19:24;101092.34;;;15.03
48854;BMP280;34673;52.808;17.856;2022-09-21T09:21:55;101089.97;;;15.45
48854;BMP280;34673;52.808;17.856;2022-09-21T09:24:37;101093.25;;;15.57
48854;BMP280;34673;52.808;17.856;2022-09-21T09:27:16;101078.69;;;15.45
48854;BMP280;34673;52.808;17.856;2022-09-21T09:32:30;101092.41;;;15.56
48854;BMP280;34673;52.808;17.856;2022-09-21T09:37:40;101091.59;;;15.52
48854;BMP280;34673;52.808;17.856;2022-09-21T09:40:11;101096.97;;;15.43
48854;BMP280;34673;52.808;17.856;2022-09-21T09:43:03;101090.03;;;15.42
48854;BMP280;34673;52.808;17.856;2022-09-21T09:50:49;101083.81;;;16.01
48854;BMP280;34673;52.808;17.856;2022-09-21T09:53:20;101080.13;;;16.11
48854;BMP280;34673;52.808;17.856;2022-09-21T09:55:49;101080.56;;;16.33
48854;BMP280;34673;52.808;17.856;2022-09-21T09:58:23;101075.84;;;16.52
48854;BMP280;34673;52.808;17.856;2022-09-21T10:00:53;101079.97;;;16.62
48854;BMP280;34673;52.808;17.856;2022-09-21T10:03:23;101055.38;;;16.30
48854;BMP280;34673;52.808;17.856;2022-09-21T10:05:51;101077.19;;;16.29
48854;BMP280;34673;52.808;17.856;2022-09-21T10:08:43;101058.22;;;16.20
48854;BMP280;34673;52.808;17.856;2022-09-21T10:11:12;101048.88;;;16.08
48854;BMP280;34673;52.808;17.856;2022-09-21T10:13:45;101070.75;;;16.01
48854;BMP280;34673;52.808;17.856;2022-09-21T10:16:19;101078.53;;;16.04
48854;BMP280;34673;52.808;17.856;2022-09-21T10:18:55;101064.81;;;15.92
48854;BMP280;34673;52.808;17.856;2022-09-21T10:21:31;101037.56;;;15.61
48854;BMP280;34673;52.808;17.856;2022-09-21T10:24:04;101071.47;;;16.09
48854;BMP280;34673;52.808;17.856;2022-09-21T10:26:52;101069.63;;;16.15
48854;BMP280;34673;52.808;17.856;2022-09-21T10:32:17;101066.66;;;15.87
48854;BMP280;34673;52.808;17.856;2022-09-21T10:42:54;101085.59;;;15.47
48854;BMP280;34673;52.808;17.856;2022-09-21T10:45:26;101043.13;;;15.41
48854;BMP280;34673;52.808;17.856;2022-09-21T10:48:06;101068.34;;;15.91
48854;BMP280;34673;52.808;17.856;2022-09-21T10:50:48;101078.25;;;16.19
48854;BMP280;34673;52.808;17.856;2022-09-21T10:53:26;101069.16;;;16.38
48854;BMP280;34673;52.808;17.856;2022-09-21T11:01:42;101063.00;;;15.98
48854;BMP280;34673;52.808;17.856;2022-09-21T11:04:15;101044.44;;;15.65
48854;BMP280;34673;52.808;17.856;2022-09-21T11:06:47;101059.25;;;15.63
48854;BMP280;34673;52.808;17.856;2022-09-21T11:09:25;101056.34;;;15.81
48854;BMP280;34673;52.808;17.856;2022-09-21T11:23:51;101069.38;;;16.68
48854;BMP280;34673;52.808;17.856;2022-09-21T11:29:23;101061.69;;;17.02
48854;BMP280;34673;52.808;17.856;2022-09-21T11:57:12;101067.50;;;15.38
48854;BMP280;34673;52.808;17.856;2022-09-21T11:59:58;101076.31;;;15.31
48854;BMP280;34673;52.808;17.856;2022-09-21T12:08:36;101086.34;;;15.00
48854;BMP280;34673;52.808;17.856;2022-09-21T12:17:12;101103.66;;;14.33
48854;BMP280;34673;52.808;17.856;2022-09-21T12:22:46;101109.25;;;13.99
48854;BMP280;34673;52.808;17.856;2022-09-21T12:25:45;101083.41;;;13.81
48854;BMP280;34673;52.808;17.856;2022-09-21T12:28:21;101090.28;;;13.88
48854;BMP280;34673;52.808;17.856;2022-09-21T12:30:58;101040.28;;;13.58
48854;BMP280;34673;52.808;17.856;2022-09-21T12:42:29;101059.81;;;13.99
48854;BMP280;34673;52.808;17.856;2022-09-21T12:45:06;101058.81;;;14.12
48854;BMP280;34673;52.808;17.856;2022-09-21T12:50:41;101062.09;;;14.27
48854;BMP280;34673;52.808;17.856;2022-09-21T12:53:16;101068.13;;;14.32
48854;BMP280;34673;52.808;17.856;2022-09-21T12:55:56;101069.88;;;14.30
48854;BMP280;34673;52.808;17.856;2022-09-21T13:09:39;101061.78;;;14.54
48854;BMP280;34673;52.808;17.856;2022-09-21T13:12:20;101059.00;;;14.68
48854;BMP280;34673;52.808;17.856;2022-09-21T13:15:02;101018.44;;;14.50
48854;BMP280;34673;52.808;17.856;2022-09-21T13:17:31;101009.59;;;14.63
48854;BMP280;34673;52.808;17.856;2022-09-21T13:20:15;101038.72;;;14.90
48854;BMP280;34673;52.808;17.856;2022-09-21T13:22:45;101047.25;;;15.01
48854;BMP280;34673;52.808;17.856;2022-09-21T13:25:21;101046.34;;;15.04
48854;BMP280;34673;52.808;17.856;2022-09-21T13:30:47;101043.78;;;14.99
48854;BMP280;34673;52.808;17.856;2022-09-21T13:38:33;101035.91;;;15.04
48854;BMP280;34673;52.808;17.856;2022-09-21T13:41:26;101039.31;;;15.09
48854;BMP280;34673;52.808;17.856;2022-09-21T13:46:47;101021.94;;;15.08
48854;BMP280;34673;52.808;17.856;2022-09-21T13:49:17;101029.78;;;15.06
48854;BMP280;34673;52.808;17.856;2022-09-21T13:52:06;101016.03;;;14.95
48854;BMP280;34673;52.808;17.856;2022-09-21T13:57:22;101027.19;;;15.05
48854;BMP280;34673;52.808;17.856;2022-09-21T14:05:34;101031.59;;;15.01
48854;BMP280;34673;52.808;17.856;2022-09-21T14:08:19;100991.91;;;14.84
48854;BMP280;34673;52.808;17.856;2022-09-21T14:11:01;101029.78;;;15.06
48854;BMP280;34673;52.808;17.856;2022-09-21T14:13:38;101003.97;;;14.91
48854;BMP280;34673;52.808;17.856;2022-09-21T14:18:55;100996.22;;;14.87
48854;BMP280;34673;52.808;17.856;2022-09-21T14:21:22;100989.31;;;14.84
48854;BMP280;34673;52.808;17.856;2022-09-21T14:26:44;101028.88;;;15.09
48854;BMP280;34673;52.808;17.856;2022-09-21T14:29:24;100972.94;;;14.76
48854;BMP280;34673;52.808;17.856;2022-09-21T14:31:58;101014.19;;;15.03
48854;BMP280;34673;52.808;17.856;2022-09-21T14:34:32;101009.03;;;15.00
48854;BMP280;34673;52.808;17.856;2022-09-21T14:37:30;101015.06;;;15.02
48854;BMP280;34673;52.808;17.856;2022-09-21T14:39:55;101003.06;;;14.94
48854;BMP280;34673;52.808;17.856;2022-09-21T14:42:26;101012.47;;;15.02
48854;BMP280;34673;52.808;17.856;2022-09-21T14:44:57;101005.50;;;15.04
48854;BMP280;34673;52.808;17.856;2022-09-21T14:50:53;100990.00;;;14.97
48854;BMP280;34673;52.808;17.856;2022-09-21T15:02:15;101001.25;;;14.97
48854;BMP280;34673;52.808;17.856;2022-09-21T15:08:11;100999.59;;;14.93
48854;BMP280;34673;52.808;17.856;2022-09-21T15:11:13;100997.06;;;14.90
48854;BMP280;34673;52.808;17.856;2022-09-21T15:14:14;101007.41;;;14.93
48854;BMP280;34673;52.808;17.856;2022-09-21T15:16:45;101007.41;;;14.93
48854;BMP280;34673;52.808;17.856;2022-09-21T15:19:26;101010.88;;;14.92
48854;BMP280;34673;52.808;17.856;2022-09-21T15:24:55;100998.75;;;14.91
48854;BMP280;34673;52.808;17.856;2022-09-21T15:27:25;101007.47;;;14.90
48854;BMP280;34673;52.808;17.856;2022-09-21T15:29:54;101004.03;;;14.88
48854;BMP280;34673;52.808;17.856;2022-09-21T15:32:35;101003.13;;;14.89
48854;BMP280;34673;52.808;17.856;2022-09-21T15:37:42;101009.41;;;14.76
48854;BMP280;34673;52.808;17.856;2022-09-21T15:40:18;100990.66;;;14.52
48854;BMP280;34673;52.808;17.856;2022-09-21T15:48:12;101020.19;;;14.48
48854;BMP280;34673;52.808;17.856;2022-09-21T15:50:40;101008.06;;;14.47
48854;BMP280;34673;52.808;17.856;2022-09-21T15:53:17;101020.19;;;14.48
48854;BMP280;34673;52.808;17.856;2022-09-21T15:55:48;101029.69;;;14.51
48854;BMP280;34673;52.808;17.856;2022-09-21T16:00:54;101041.75;;;14.61
48854;BMP280;34673;52.808;17.856;2022-09-21T16:03:23;101043.41;;;14.65
48854;BMP280;34673;52.808;17.856;2022-09-21T16:05:54;101051.25;;;14.63
48854;BMP280;34673;52.808;17.856;2022-09-21T16:11:18;101053.25;;;14.40
48854;BMP280;34673;52.808;17.856;2022-09-21T16:13:46;101056.00;;;14.31
48854;BMP280;34673;52.808;17.856;2022-09-21T16:16:32;101019.00;;;14.04
48854;BMP280;34673;52.808;17.856;2022-09-21T16:18:59;101057.88;;;14.18
48854;BMP280;34673;52.808;17.856;2022-09-21T16:21:27;101057.09;;;14.11
48854;BMP280;34673;52.808;17.856;2022-09-21T16:24:19;101063.22;;;14.04
48854;BMP280;34673;52.808;17.856;2022-09-21T16:26:59;101060.72;;;13.95
48854;BMP280;34673;52.808;17.856;2022-09-21T16:29:38;101071.22;;;13.86
48854;BMP280;34673;52.808;17.856;2022-09-21T16:32:50;101064.38;;;13.75
48854;BMP280;34673;52.808;17.856;2022-09-21T16:35:21;101073.13;;;13.68
48854;BMP280;34673;52.808;17.856;2022-09-21T16:37:53;101067.13;;;13.62
48854;BMP280;34673;52.808;17.856;2022-09-21T16:40:27;101057.69;;;13.50
48854;BMP280;34673;52.808;17.856;2022-09-21T16:42:55;101064.66;;;13.48
48854;BMP280;34673;52.808;17.856;2022-09-21T16:45:28;101070.69;;;13.48
48854;BMP280;34673;52.808;17.856;2022-09-21T16:47:58;101085.41;;;13.51
48854;BMP280;34673;52.808;17.856;2022-09-21T16:50:25;101061.31;;;13.34
48854;BMP280;34673;52.808;17.856;2022-09-21T16:52:52;101088.13;;;13.39
48854;BMP280;34673;52.808;17.856;2022-09-21T16:55:20;101092.44;;;13.40
48854;BMP280;34673;52.808;17.856;2022-09-21T16:57:53;101022.69;;;12.84
48854;BMP280;34673;52.808;17.856;2022-09-21T17:00:21;101052.84;;;13.04
48854;BMP280;34673;52.808;17.856;2022-09-21T17:02:48;101096.00;;;13.26
48854;BMP280;34673;52.808;17.856;2022-09-21T17:05:15;101096.84;;;13.24
48854;BMP280;34673;52.808;17.856;2022-09-21T17:07:57;101039.06;;;12.93
48854;BMP280;34673;52.808;17.856;2022-09-21T17:10:28;101098.63;;;13.20
48854;BMP280;34673;52.808;17.856;2022-09-21T17:12:57;101102.94;;;13.18
48854;BMP280;34673;52.808;17.856;2022-09-21T17:15:26;101073.66;;;12.98
48854;BMP280;34673;52.808;17.856;2022-09-21T17:17:54;101096.97;;;13.07
48854;BMP280;34673;52.808;17.856;2022-09-21T17:20:33;101092.69;;;12.97
48854;BMP280;34673;52.808;17.856;2022-09-21T17:23:01;101111.66;;;13.08
48854;BMP280;34673;52.808;17.856;2022-09-21T17:25:30;101111.69;;;13.05
48854;BMP280;34673;52.808;17.856;2022-09-21T17:27:59;101110.00;;;13.01
48854;BMP280;34673;52.808;17.856;2022-09-21T17:30:27;101109.13;;;12.99
48854;BMP280;34673;52.808;17.856;2022-09-21T17:32:55;101081.56;;;12.75
48854;BMP280;34673;52.808;17.856;2022-09-21T17:35:30;101112.66;;;12.95
48854;BMP280;34673;52.808;17.856;2022-09-21T17:37:58;101115.22;;;12.92
48854;BMP280;34673;52.808;17.856;2022-09-21T17:40:26;101113.50;;;12.91